Time;durP1;ratioP1;P1;durP2;ratioP2;P2;SDS_P1;SDS_P2;PMS_P1;PMS_P2;Temp;Humidity;BMP_temperature;BMP_pressure;BME280_temperature;BME280_humidity;BME280_pressure;Samples;Min_cycle;Max_cycle;Signal;HPM_P1;HPM_P2
2022/03/06 00:01:48;;;;;;;2.13;1.38;;;;;;;26.37;24.19;96764.28;4999916;28;20526;-34
2022/03/06 00:04:14;;;;;;;1.98;1.50;;;;;;;26.37;24.19;96756.38;5001617;28;20029;-29
2022/03/06 00:06:39;;;;;;;1.35;1.25;;;;;;;26.37;24.11;96756.38;4998310;28;20041;-32
2022/03/06 00:09:04;;;;;;;4.00;1.52;;;;;;;26.37;24.00;96764.28;5000959;28;20041;-33
2022/03/06 00:11:30;;;;;;;2.97;1.42;;;;;;;26.37;24.05;96761.66;4998667;28;20764;-35
2022/03/06 00:13:55;;;;;;;2.67;1.40;;;;;;;26.36;24.16;96763.44;4999484;28;20589;-31
2022/03/06 00:16:21;;;;;;;1.45;1.35;;;;;;;26.35;24.23;96767.84;4994525;28;20814;-30
2022/03/06 00:18:46;;;;;;;3.03;1.50;;;;;;;26.35;24.19;96762.59;5000164;28;20061;-28
2022/03/06 00:21:13;;;;;;;4.28;1.60;;;;;;;26.36;24.05;96763.44;4998956;28;20107;-33
2022/03/06 00:23:38;;;;;;;1.95;1.40;;;;;;;26.34;24.00;96760.91;5000015;28;20037;-33
2022/03/06 00:26:03;;;;;;;1.52;1.38;;;;;;;26.37;23.76;96756.38;4999314;28;20025;-31
2022/03/06 00:28:29;;;;;;;3.00;1.30;;;;;;;26.35;24.16;96751.22;4999112;28;20053;-29
2022/03/06 00:30:54;;;;;;;2.22;1.20;;;;;;;26.35;24.14;96754.69;5001214;28;20064;-31
2022/03/06 00:33:20;;;;;;;1.55;1.38;;;;;;;26.35;24.12;96752.06;5000479;28;20565;-32
2022/03/06 00:35:45;;;;;;;2.33;1.70;;;;;;;26.35;23.77;96751.22;4999525;28;20084;-27
2022/03/06 00:38:11;;;;;;;3.70;1.70;;;;;;;26.34;24.01;96755.63;5001458;28;20198;-33
2022/03/06 00:40:36;;;;;;;1.83;1.58;;;;;;;26.33;24.20;96753.97;4999050;28;20036;-32
2022/03/06 00:43:02;;;;;;;1.95;1.10;;;;;;;26.34;24.23;96749.53;4997124;28;20049;-33
2022/03/06 00:45:27;;;;;;;1.70;1.30;;;;;;;26.33;23.97;96743.44;4997413;28;20511;-27
2022/03/06 00:47:53;;;;;;;2.13;1.60;;;;;;;26.34;23.98;96745.13;4999787;28;20036;-27
2022/03/06 00:50:18;;;;;;;1.60;1.27;;;;;;;26.33;24.09;96748.69;4998058;28;20511;-31
2022/03/06 00:52:44;;;;;;;5.35;1.10;;;;;;;26.32;23.96;96746.97;4999383;28;20590;-32
2022/03/06 00:55:09;;;;;;;2.03;1.45;;;;;;;26.33;24.10;96753.97;4999600;28;20030;-30
2022/03/06 00:57:34;;;;;;;1.40;1.30;;;;;;;26.32;24.02;96751.41;4999447;28;20044;-33
2022/03/06 01:00:00;;;;;;;3.42;1.30;;;;;;;26.30;24.11;96748.88;4999655;28;20040;-32
2022/03/06 01:02:26;;;;;;;1.48;1.38;;;;;;;26.31;24.13;96747.94;4996420;28;20740;-33
2022/03/06 01:04:52;;;;;;;1.20;1.10;;;;;;;26.31;24.10;96745.28;4998460;28;20040;-30
2022/03/06 01:07:17;;;;;;;1.35;1.20;;;;;;;26.32;23.96;96756.66;4998094;28;20751;-35
2022/03/06 01:09:43;;;;;;;1.40;1.30;;;;;;;26.30;24.12;96762.00;4999390;28;20037;-32
2022/03/06 01:12:08;;;;;;;1.58;1.17;;;;;;;26.30;24.07;96764.63;4997607;28;20112;-34
2022/03/06 01:14:34;;;;;;;1.75;1.30;;;;;;;26.30;23.97;96769.88;4998710;28;20148;-32
2022/03/06 01:16:59;;;;;;;1.77;1.27;;;;;;;26.30;23.98;96769.88;4998465;28;20037;-31
2022/03/06 01:19:24;;;;;;;2.03;1.48;;;;;;;26.30;24.15;96769.88;4999901;28;20033;-36
2022/03/06 01:21:50;;;;;;;1.73;1.38;;;;;;;26.30;24.14;96769.88;4998481;28;20038;-30
2022/03/06 01:24:15;;;;;;;2.53;1.70;;;;;;;26.29;23.96;96757.69;4998657;28;20037;-33
2022/03/06 01:26:41;;;;;;;1.77;1.33;;;;;;;26.29;24.00;96760.31;4995395;28;20045;-36
2022/03/06 01:29:06;;;;;;;2.10;1.50;;;;;;;26.30;23.98;96763.75;5000627;28;20029;-29
2022/03/06 01:31:31;;;;;;;1.58;1.45;;;;;;;26.29;24.06;96772.59;5006034;28;20033;-32
2022/03/06 01:33:57;;;;;;;2.00;1.40;;;;;;;26.29;23.71;96767.34;5005390;28;20033;-30
2022/03/06 01:36:22;;;;;;;1.70;1.50;;;;;;;26.28;24.25;96766.47;5005716;28;20314;-32
2022/03/06 01:38:48;;;;;;;2.08;1.10;;;;;;;26.28;24.09;96761.22;5002259;28;20411;-34
2022/03/06 01:41:13;;;;;;;1.38;1.25;;;;;;;26.28;24.18;96765.66;4999120;28;20048;-34
2022/03/06 01:43:39;;;;;;;1.92;1.30;;;;;;;26.28;24.09;96755.97;4998624;28;20452;-28
2022/03/06 01:46:04;;;;;;;2.10;1.55;;;;;;;26.27;23.78;96770.03;4999527;28;20201;-33
2022/03/06 01:48:30;;;;;;;1.85;1.40;;;;;;;26.27;24.06;96753.44;4997868;28;20018;-34
2022/03/06 01:50:55;;;;;;;2.20;1.20;;;;;;;26.26;23.94;96763.09;4997383;28;20030;-35
2022/03/06 01:53:21;;;;;;;1.27;1.13;;;;;;;26.25;23.76;96761.38;4999484;28;20083;-33
2022/03/06 01:55:46;;;;;;;2.65;1.52;;;;;;;26.26;23.63;96763.09;4995497;28;20496;-34
2022/03/06 01:58:12;;;;;;;2.42;1.30;;;;;;;26.26;24.26;96762.25;4999659;28;20045;-38
2022/03/06 02:00:40;;;;;;;1.40;1.30;;;;;;;26.24;23.94;96749.19;4997060;28;20065;-36
2022/03/06 02:03:05;;;;;;;2.15;1.20;;;;;;;26.25;23.70;96750.00;4998187;28;20176;-37
2022/03/06 02:05:31;;;;;;;2.60;1.20;;;;;;;26.24;24.30;96754.44;4997209;28;20910;-36
2022/03/06 02:07:56;;;;;;;2.00;1.27;;;;;;;26.23;24.11;96753.59;4996851;28;20036;-32
2022/03/06 02:10:22;;;;;;;1.38;1.25;;;;;;;26.23;24.01;96747.47;4998199;28;20744;-29
2022/03/06 02:12:48;;;;;;;2.42;1.50;;;;;;;26.23;23.62;96747.47;4999051;28;20165;-34
2022/03/06 02:15:15;;;;;;;1.63;1.30;;;;;;;26.22;23.80;96745.78;4996942;28;20490;-29
2022/03/06 02:17:40;;;;;;;1.63;1.42;;;;;;;26.22;24.29;96745.78;4996848;28;20721;-29
2022/03/06 02:20:15;;;;;;;1.95;1.20;;;;;;;26.21;24.07;96750.19;4997118;28;20021;-34
2022/03/06 02:22:45;;;;;;;1.48;1.33;;;;;;;26.20;23.66;96743.25;4997346;28;20790;-33
2022/03/06 02:25:13;;;;;;;1.30;1.15;;;;;;;26.21;23.80;96749.34;4999334;28;20033;-32
2022/03/06 02:27:38;;;;;;;2.40;1.52;;;;;;;26.20;23.96;96742.41;4996096;28;20541;-29
2022/03/06 02:30:08;;;;;;;1.90;1.30;;;;;;;26.20;23.64;96739.78;4999167;28;20029;-35
2022/03/06 02:32:33;;;;;;;1.33;1.10;;;;;;;26.16;23.76;96739.09;4997737;28;21159;-33
2022/03/06 02:34:59;;;;;;;1.63;1.33;;;;;;;26.19;24.25;96746.81;4995558;28;20566;-32
2022/03/06 02:37:24;;;;;;;1.73;1.20;;;;;;;26.19;23.95;96745.94;4998805;28;20030;-30
2022/03/06 02:39:50;;;;;;;3.00;1.30;;;;;;;26.18;24.25;96744.25;4998598;28;20034;-32
2022/03/06 02:42:23;;;;;;;1.40;1.10;;;;;;;26.19;24.15;96743.31;4999372;28;20029;-32
2022/03/06 02:44:48;;;;;;;1.92;1.17;;;;;;;26.18;23.95;96742.50;5006080;28;20471;-31
2022/03/06 02:47:14;;;;;;;2.03;1.40;;;;;;;26.17;24.01;96743.44;5005376;28;20045;-38
2022/03/06 02:49:39;;;;;;;1.42;1.13;;;;;;;26.17;24.06;96742.56;5007868;28;20088;-31
2022/03/06 02:52:08;;;;;;;2.05;1.40;;;;;;;26.18;23.81;96744.25;5007555;28;20021;-33
2022/03/06 02:54:33;;;;;;;3.10;1.27;;;;;;;26.17;23.90;96743.44;5006607;28;20036;-34
2022/03/06 02:56:59;;;;;;;1.55;1.08;;;;;;;26.16;23.66;96748.75;5008696;28;20566;-33
2022/03/06 02:59:24;;;;;;;2.13;1.40;;;;;;;26.15;23.90;96745.28;5008993;28;20538;-32
2022/03/06 03:01:49;;;;;;;1.30;1.20;;;;;;;26.16;24.05;96751.38;5007527;28;20022;-33
2022/03/06 03:04:15;;;;;;;1.90;1.40;;;;;;;26.16;24.02;96751.38;5005236;28;20463;-31
2022/03/06 03:06:40;;;;;;;2.00;1.60;;;;;;;26.15;24.06;96745.28;5006444;28;20233;-33
2022/03/06 03:09:06;;;;;;;2.28;1.50;;;;;;;26.14;24.25;96750.59;5007709;28;20032;-28
2022/03/06 03:11:33;;;;;;;1.58;1.33;;;;;;;26.14;23.67;96747.97;5006107;28;20653;-32
2022/03/06 03:13:59;;;;;;;1.35;1.25;;;;;;;26.14;23.96;96756.72;4998883;28;20045;-29
2022/03/06 03:16:24;;;;;;;1.58;1.33;;;;;;;26.14;23.73;96755.88;4997219;28;20038;-33
2022/03/06 03:18:50;;;;;;;1.95;1.60;;;;;;;26.14;24.14;96753.22;4997089;28;20026;-28
2022/03/06 03:21:15;;;;;;;2.08;1.30;;;;;;;26.12;23.89;96753.31;4995845;28;20045;-32
2022/03/06 03:23:40;;;;;;;1.40;1.15;;;;;;;26.13;23.67;96754.19;4997527;28;20029;-33
2022/03/06 03:26:06;;;;;;;1.98;1.38;;;;;;;26.12;24.17;96755.13;5000141;28;20038;-34
2022/03/06 03:28:31;;;;;;;2.08;1.20;;;;;;;26.12;24.25;96755.13;4997058;28;20052;-36
2022/03/06 03:30:57;;;;;;;3.70;1.60;;;;;;;26.13;23.66;96759.44;5001281;28;20033;-30
2022/03/06 03:33:22;;;;;;;1.50;1.25;;;;;;;26.10;23.78;96756.03;5004603;28;20981;-34
2022/03/06 03:35:47;;;;;;;1.85;1.30;;;;;;;26.12;24.17;96760.38;4995478;28;20040;-34
2022/03/06 03:38:13;;;;;;;1.50;1.35;;;;;;;26.10;23.98;96763.91;4998362;28;20029;-34
2022/03/06 03:40:38;;;;;;;2.90;1.40;;;;;;;26.10;24.18;96756.03;4995447;28;20048;-30
2022/03/06 03:43:04;;;;;;;2.13;1.23;;;;;;;26.09;24.19;96762.22;4998916;28;20030;-31
2022/03/06 03:45:29;;;;;;;2.35;1.50;;;;;;;26.08;23.96;96765.78;4999204;28;20033;-36
2022/03/06 03:47:55;;;;;;;1.63;1.35;;;;;;;26.08;23.98;96765.78;4998878;28;20152;-34
2022/03/06 03:50:20;;;;;;;1.70;1.30;;;;;;;26.07;23.83;96769.34;5000591;28;20115;-30
2022/03/06 03:52:45;;;;;;;1.30;1.20;;;;;;;26.08;23.66;96770.16;4999808;28;21011;-33
2022/03/06 03:55:11;;;;;;;3.88;1.70;;;;;;;26.07;23.68;96769.34;4998530;28;20030;-30
2022/03/06 03:57:36;;;;;;;2.08;1.35;;;;;;;26.07;23.92;96769.34;4999962;28;20087;-35
2022/03/06 04:00:06;;;;;;;1.40;1.17;;;;;;;26.06;23.71;96772.91;5001165;28;20583;-34
2022/03/06 04:02:32;;;;;;;1.40;1.30;;;;;;;26.06;24.24;96783.41;5000649;28;21655;-30
2022/03/06 04:04:57;;;;;;;2.47;1.42;;;;;;;26.05;24.02;96781.69;4999276;28;20160;-33
2022/03/06 04:07:23;;;;;;;3.50;1.67;;;;;;;26.04;24.29;96782.63;4998418;28;20037;-31
2022/03/06 04:09:48;;;;;;;1.88;1.42;;;;;;;26.05;24.23;96791.38;5001331;28;20092;-35
2022/03/06 04:12:14;;;;;;;1.75;1.30;;;;;;;26.04;23.69;96793.13;4999083;28;20026;-29
2022/03/06 04:14:39;;;;;;;2.47;1.20;;;;;;;26.04;24.01;96795.75;5000603;28;20112;-31
2022/03/06 04:17:05;;;;;;;2.55;1.20;;;;;;;26.03;23.78;96794.06;4998309;28;20026;-33
2022/03/06 04:19:30;;;;;;;1.40;1.30;;;;;;;26.04;23.71;96802.78;4997601;28;20030;-35
2022/03/06 04:21:56;;;;;;;2.65;1.25;;;;;;;26.03;23.92;96794.06;4999400;28;20033;-30
2022/03/06 04:24:21;;;;;;;1.85;1.30;;;;;;;26.02;24.20;96802.88;4998596;28;20030;-33
2022/03/06 04:26:46;;;;;;;1.50;1.30;;;;;;;26.02;23.90;96802.88;4998022;28;20036;-34
2022/03/06 04:29:12;;;;;;;2.88;1.33;;;;;;;26.01;24.09;96803.78;4998102;28;20526;-34
2022/03/06 04:31:37;;;;;;;2.50;1.20;;;;;;;26.02;24.25;96807.28;4999396;28;20045;-34
2022/03/06 04:34:02;;;;;;;3.42;1.55;;;;;;;26.00;23.63;96812.59;4998471;28;20037;-33
2022/03/06 04:36:28;;;;;;;1.77;1.15;;;;;;;26.00;23.74;96815.22;5004328;28;20051;-31
2022/03/06 04:38:53;;;;;;;1.73;1.33;;;;;;;26.01;24.23;96810.84;5001244;28;20045;-32
2022/03/06 04:41:19;;;;;;;14.73;3.67;;;;;;;26.00;24.05;96815.22;4999831;28;20048;-34
2022/03/06 04:43:44;;;;;;;4.90;2.53;;;;;;;25.96;23.86;96813.69;4995487;28;20879;-33
2022/03/06 04:46:10;;;;;;;4.60;1.80;;;;;;;25.97;24.26;96810.13;4994611;28;20045;-35
2022/03/06 04:48:35;;;;;;;1.45;1.35;;;;;;;25.94;23.85;96810.31;4998462;28;20026;-31
2022/03/06 04:51:01;;;;;;;3.45;1.65;;;;;;;25.96;23.72;96818.94;4999666;28;20029;-32
2022/03/06 04:53:26;;;;;;;2.03;1.83;;;;;;;25.94;23.86;96815.56;4999226;28;20044;-30
2022/03/06 04:55:52;;;;;;;3.60;1.60;;;;;;;25.94;23.89;96818.19;4996590;28;20139;-32
2022/03/06 04:58:17;;;;;;;3.92;1.45;;;;;;;25.93;24.35;96813.88;4999118;28;20030;-34
2022/03/06 05:00:42;;;;;;;2.10;1.70;;;;;;;25.93;23.69;96821.75;4999233;28;20214;-32
2022/03/06 05:03:08;;;;;;;2.15;1.60;;;;;;;25.93;23.98;96829.63;5001150;28;20029;-34
2022/03/06 05:05:33;;;;;;;3.13;1.55;;;;;;;25.94;24.38;96826.06;4999681;28;20029;-32
2022/03/06 05:07:59;;;;;;;1.88;1.42;;;;;;;25.93;23.78;96821.75;5005057;28;20043;-31
2022/03/06 05:10:24;;;;;;;3.50;1.50;;;;;;;25.93;23.99;96830.47;4999973;28;20484;-35
2022/03/06 05:12:50;;;;;;;1.73;1.50;;;;;;;25.92;24.37;96827.91;4997145;28;20143;-31
2022/03/06 05:15:15;;;;;;;3.08;1.48;;;;;;;25.92;23.69;96827.91;4999437;28;20827;-32
2022/03/06 05:17:41;;;;;;;2.13;1.33;;;;;;;25.91;24.25;96837.59;4996767;28;20025;-31
2022/03/06 05:20:08;;;;;;;1.95;1.38;;;;;;;25.91;23.90;96831.47;4998091;28;20039;-33
2022/03/06 05:22:33;;;;;;;1.77;1.50;;;;;;;25.91;24.32;96837.59;4997078;28;20120;-32
2022/03/06 05:24:59;;;;;;;1.63;1.20;;;;;;;25.91;24.19;96840.22;4997726;28;20037;-32
2022/03/06 05:27:27;;;;;;;2.97;1.27;;;;;;;25.91;23.91;96831.47;4998413;28;20498;-36
2022/03/06 05:29:52;;;;;;;2.72;1.52;;;;;;;25.89;24.01;96833.34;5006216;28;20055;-29
2022/03/06 05:32:18;;;;;;;1.67;1.35;;;;;;;25.90;23.78;96835.03;5006323;28;20056;-32
2022/03/06 05:34:43;;;;;;;1.40;1.30;;;;;;;25.90;24.31;96835.03;5001784;28;20064;-35
2022/03/06 05:37:09;;;;;;;2.03;1.38;;;;;;;25.89;24.10;96841.22;4999346;28;20026;-34
2022/03/06 05:39:34;;;;;;;3.33;1.30;;;;;;;25.88;24.41;96843.00;4996371;28;20965;-28
2022/03/06 05:41:59;;;;;;;1.33;1.17;;;;;;;25.88;24.23;96842.13;5003967;28;20475;-34
2022/03/06 05:44:26;;;;;;;2.08;1.52;;;;;;;25.88;24.12;96842.13;5005310;28;20463;-31
2022/03/06 05:46:51;;;;;;;2.17;1.52;;;;;;;25.87;24.25;96851.81;5006223;28;20064;-32
2022/03/06 05:49:17;;;;;;;1.77;1.48;;;;;;;25.87;24.10;96862.31;5005438;28;20124;-35
2022/03/06 05:51:42;;;;;;;1.40;1.30;;;;;;;25.86;24.28;96855.38;5007408;28;20056;-27
2022/03/06 05:54:08;;;;;;;1.50;1.40;;;;;;;25.86;23.94;96857.13;5007106;28;20036;-31
2022/03/06 05:56:34;;;;;;;1.48;1.35;;;;;;;25.86;24.16;96851.88;5005820;28;20074;-28
2022/03/06 05:58:59;;;;;;;1.40;1.30;;;;;;;25.85;24.14;96853.66;5007480;28;20506;-33
2022/03/06 06:01:25;;;;;;;2.00;1.33;;;;;;;25.86;23.94;96862.38;5006625;28;20036;-33
2022/03/06 06:03:50;;;;;;;1.35;1.15;;;;;;;25.85;24.15;96858.06;5006206;28;20062;-34
2022/03/06 06:06:16;;;;;;;1.83;1.30;;;;;;;25.85;23.81;96852.81;5006215;28;20030;-29
2022/03/06 06:08:41;;;;;;;1.85;1.30;;;;;;;25.84;24.14;96857.22;5007692;28;20026;-31
2022/03/06 06:11:07;;;;;;;1.20;1.10;;;;;;;25.85;24.13;96868.56;5004517;28;20091;-34
2022/03/06 06:13:33;;;;;;;2.38;1.40;;;;;;;25.84;23.95;96857.22;4999593;28;20025;-29
2022/03/06 06:15:58;;;;;;;1.80;1.45;;;;;;;25.84;24.04;96859.84;5004650;28;20399;-34
2022/03/06 06:18:26;;;;;;;1.50;1.20;;;;;;;25.83;24.19;96851.09;4997638;28;20033;-36
2022/03/06 06:20:52;;;;;;;2.30;1.42;;;;;;;25.85;24.13;96858.06;4994536;28;20036;-32
2022/03/06 06:23:18;;;;;;;4.10;1.52;;;;;;;25.85;24.11;96863.31;4995535;28;20041;-35
2022/03/06 06:25:43;;;;;;;1.48;1.27;;;;;;;25.85;24.07;96858.06;4996315;28;20324;-31
2022/03/06 06:28:08;;;;;;;1.83;1.33;;;;;;;25.83;24.19;96851.09;4998562;28;23302;-32
2022/03/06 06:30:34;;;;;;;1.42;1.10;;;;;;;25.83;23.90;96858.16;4997175;28;20111;-31
2022/03/06 06:32:59;;;;;;;2.17;1.38;;;;;;;25.86;24.14;96865.00;4997926;28;20030;-31
2022/03/06 06:35:25;;;;;;;1.40;1.30;;;;;;;25.85;24.08;96858.91;4999651;28;20068;-31
2022/03/06 06:37:50;;;;;;;3.60;1.42;;;;;;;25.85;23.88;96858.91;4999665;28;20590;-31
2022/03/06 06:40:15;;;;;;;2.90;1.50;;;;;;;25.85;23.82;96858.91;4996693;28;20025;-32
2022/03/06 06:42:41;;;;;;;1.33;1.20;;;;;;;25.87;24.11;96864.94;4997181;28;20033;-29
2022/03/06 06:45:07;;;;;;;1.50;1.30;;;;;;;25.87;24.06;96872.81;4998096;28;20022;-32
2022/03/06 06:47:32;;;;;;;1.38;1.20;;;;;;;25.88;24.05;96864.00;4996596;28;20041;-30
2022/03/06 06:49:57;;;;;;;2.63;1.58;;;;;;;25.89;24.22;96867.47;4997780;28;20728;-34
2022/03/06 06:52:23;;;;;;;1.27;1.00;;;;;;;25.88;24.02;96873.63;4996061;28;20083;-32
2022/03/06 06:54:48;;;;;;;1.63;1.27;;;;;;;25.89;23.99;96872.75;4996233;28;20029;-29
2022/03/06 06:57:14;;;;;;;1.52;1.33;;;;;;;25.90;24.02;96877.06;4998219;28;20033;-35
2022/03/06 06:59:39;;;;;;;1.10;1.00;;;;;;;25.90;23.81;96866.56;4999788;28;20022;-32
2022/03/06 07:02:05;;;;;;;1.80;1.48;;;;;;;25.90;23.86;96877.06;4993908;28;20103;-30
2022/03/06 07:04:30;;;;;;;3.00;1.23;;;;;;;25.90;23.83;96877.06;4999402;28;20539;-30
2022/03/06 07:06:55;;;;;;;1.45;1.33;;;;;;;25.91;24.28;96878.75;5000804;28;20542;-34
2022/03/06 07:09:21;;;;;;;1.40;1.10;;;;;;;25.92;24.37;96880.44;4999350;28;20045;-33
2022/03/06 07:11:46;;;;;;;1.55;1.40;;;;;;;25.91;24.36;96869.09;4998560;28;20053;-34
2022/03/06 07:14:12;;;;;;;1.35;1.15;;;;;;;25.92;24.28;96883.91;4996393;28;21442;-32
2022/03/06 07:16:37;;;;;;;7.07;3.10;;;;;;;25.92;24.24;96880.44;4997604;28;20029;-33
2022/03/06 07:19:02;;;;;;;7.60;2.60;;;;;;;25.92;23.98;96888.31;5000337;28;20026;-29
2022/03/06 07:21:28;;;;;;;5.80;1.65;;;;;;;25.92;24.12;96896.19;5003428;28;20093;-30
2022/03/06 07:23:53;;;;;;;2.33;1.40;;;;;;;25.91;23.69;96889.25;5003671;28;20124;-34
2022/03/06 07:26:19;;;;;;;2.28;1.50;;;;;;;25.93;23.90;96895.28;4998990;28;20551;-36
2022/03/06 07:28:44;;;;;;;2.30;1.90;;;;;;;25.93;24.42;96893.47;5002565;28;20037;-38
2022/03/06 07:31:09;;;;;;;4.55;1.80;;;;;;;25.93;23.84;96890.03;5011567;28;20045;-32
2022/03/06 07:33:35;;;;;;;3.53;1.90;;;;;;;25.93;23.85;96892.66;5001285;28;20064;-30
2022/03/06 07:36:00;;;;;;;5.75;2.95;;;;;;;25.94;24.38;96889.09;4997752;28;20030;-37
2022/03/06 07:38:26;;;;;;;12.88;5.22;;;;;;;25.94;24.27;96886.47;4999049;28;20388;-31
2022/03/06 07:40:51;;;;;;;14.05;4.57;;;;;;;25.95;24.28;96893.41;4996101;28;20037;-32
2022/03/06 07:43:17;;;;;;;11.27;4.28;;;;;;;25.95;23.85;96891.63;5001383;28;20025;-35
2022/03/06 07:45:42;;;;;;;12.27;4.30;;;;;;;25.95;24.20;96896.03;5000866;28;20053;-35
2022/03/06 07:48:07;;;;;;;13.02;4.05;;;;;;;25.96;23.86;96893.34;5001177;28;20553;-31
2022/03/06 07:50:33;;;;;;;12.40;4.15;;;;;;;25.97;24.06;96899.41;4990939;28;20880;-32
2022/03/06 07:52:58;;;;;;;10.90;3.50;;;;;;;25.99;24.60;96897.56;5000313;28;20495;-35
2022/03/06 07:55:24;;;;;;;12.50;4.10;;;;;;;26.01;24.10;96903.56;5001413;28;20052;-32
2022/03/06 07:57:49;;;;;;;10.15;3.95;;;;;;;26.04;24.23;96905.19;5000535;28;20032;-31
2022/03/06 08:00:15;;;;;;;11.57;4.22;;;;;;;26.05;24.48;96904.28;4998792;28;20041;-32
2022/03/06 08:02:40;;;;;;;9.40;3.53;;;;;;;26.06;24.69;96906.84;5001376;28;20105;-39
2022/03/06 08:05:06;;;;;;;11.60;3.90;;;;;;;26.09;24.13;96913.69;4999969;28;20108;-31
2022/03/06 08:07:32;;;;;;;12.15;4.15;;;;;;;26.10;24.58;96910.97;4997579;28;20401;-29
2022/03/06 08:09:58;;;;;;;6.65;3.50;;;;;;;26.13;24.06;96909.13;4999744;28;20037;-33
2022/03/06 08:12:25;;;;;;;9.43;3.60;;;;;;;26.14;24.72;96905.56;4999888;28;20575;-33
2022/03/06 08:14:51;;;;;;;10.52;3.85;;;;;;;26.15;24.45;96902.00;4999165;28;20120;-28
2022/03/06 08:17:17;;;;;;;8.52;3.60;;;;;;;26.18;24.14;96907.09;4999442;28;20065;-28
2022/03/06 08:19:42;;;;;;;9.68;4.28;;;;;;;26.20;24.65;96910.50;4996949;28;20034;-32
2022/03/06 08:22:08;;;;;;;10.95;4.03;;;;;;;26.22;24.67;96900.75;4998303;28;20029;-33
2022/03/06 08:24:33;;;;;;;12.32;4.10;;;;;;;26.25;24.69;96903.22;5001912;28;20033;-35
2022/03/06 08:26:59;;;;;;;9.90;4.07;;;;;;;26.26;24.68;96893.59;4997358;28;20029;-28
2022/03/06 08:29:24;;;;;;;7.28;3.78;;;;;;;26.28;24.51;96902.25;5002062;28;20101;-31
2022/03/06 08:31:49;;;;;;;11.85;4.32;;;;;;;26.30;24.00;96895.97;4999627;28;20022;-30
2022/03/06 08:34:15;;;;;;;8.77;3.60;;;;;;;26.33;23.99;96895.81;4999608;28;20037;-36
2022/03/06 08:36:40;;;;;;;8.15;4.07;;;;;;;26.34;24.43;96897.50;5000709;28;20815;-31
2022/03/06 08:39:06;;;;;;;11.00;5.60;;;;;;;26.35;23.12;96906.22;4997690;28;20025;-32
2022/03/06 08:41:31;;;;;;;8.82;3.95;;;;;;;26.35;23.83;96907.09;5000481;28;20038;-30
2022/03/06 08:43:57;;;;;;;11.02;4.68;;;;;;;26.36;23.42;96900.06;4998463;28;20060;-33
2022/03/06 08:46:22;;;;;;;10.98;4.38;;;;;;;26.38;23.68;96902.63;4999494;28;20052;-33
2022/03/06 08:48:47;;;;;;;6.55;3.70;;;;;;;26.39;23.70;96896.41;5001481;28;20403;-32
2022/03/06 08:51:13;;;;;;;9.68;4.20;;;;;;;26.40;23.97;96900.72;4997149;28;20030;-34
2022/03/06 08:53:39;;;;;;;6.22;3.88;;;;;;;26.42;23.50;96904.97;5000039;28;20029;-35
2022/03/06 08:56:04;;;;;;;7.55;3.97;;;;;;;26.45;24.09;96903.97;4997332;28;20049;-33
2022/03/06 08:58:29;;;;;;;6.57;3.47;;;;;;;26.45;23.58;96898.69;4997098;28;20867;-28
2022/03/06 09:00:55;;;;;;;8.85;4.10;;;;;;;26.47;23.85;96899.47;4996090;28;20022;-34
2022/03/06 09:03:20;;;;;;;7.22;3.58;;;;;;;26.48;23.89;96899.38;4996662;28;20025;-29
2022/03/06 09:05:46;;;;;;;6.70;3.50;;;;;;;26.50;23.59;96895.84;4998673;28;20642;-34
2022/03/06 09:08:11;;;;;;;6.43;3.83;;;;;;;26.51;23.68;96894.91;4995762;28;20034;-33
2022/03/06 09:10:38;;;;;;;5.85;3.20;;;;;;;26.53;24.13;96886.00;4995123;28;20960;-31
2022/03/06 09:13:04;;;;;;;5.10;3.30;;;;;;;26.54;23.58;96895.56;4992193;28;21869;-30
2022/03/06 09:15:29;;;;;;;7.70;3.35;;;;;;;26.55;23.63;96894.63;4989757;28;20111;-31
2022/03/06 09:17:55;;;;;;;5.15;3.30;;;;;;;26.56;24.10;96888.47;4981556;28;20025;-32
2022/03/06 09:20:20;;;;;;;9.13;3.42;;;;;;;26.58;23.80;96894.47;4982286;28;20033;-32
2022/03/06 09:22:46;;;;;;;6.57;3.47;;;;;;;26.59;24.06;96890.91;4985324;28;20037;-30
2022/03/06 09:25:12;;;;;;;5.50;3.15;;;;;;;26.62;23.74;96900.44;4984222;28;20046;-36
2022/03/06 09:27:37;;;;;;;7.45;3.40;;;;;;;26.63;24.13;96901.25;4990050;28;20041;-36
2022/03/06 09:30:03;;;;;;;6.45;3.28;;;;;;;26.65;24.07;96909.94;4988802;28;20116;-36
2022/03/06 09:32:29;;;;;;;27.30;10.40;;;;;;;26.60;18.71;96897.03;4988903;28;20034;-34
2022/03/06 09:34:54;;;;;;;12.23;10.93;;;;;;;-148.56;100.00;61375.16;5002289;28;20038;-33
2022/03/06 09:37:20;;;;;;;14.20;11.27;;;;;;;25.99;13.86;96894.94;5006073;28;20018;-35
2022/03/06 09:39:45;;;;;;;14.77;9.82;;;;;;;25.63;15.42;96904.63;5006488;28;20049;-30
2022/03/06 09:42:10;;;;;;;11.13;8.10;;;;;;;25.39;16.65;96893.56;5003509;28;20033;-29
2022/03/06 09:44:36;;;;;;;11.40;7.78;;;;;;;25.24;17.27;96896.03;5010183;28;20037;-33
2022/03/06 09:47:01;;;;;;;9.18;7.63;;;;;;;25.14;17.81;96890.38;4988536;28;20025;-30
2022/03/06 09:49:27;;;;;;;8.20;6.88;;;;;;;25.11;18.12;96894.91;5005577;28;20030;-32
2022/03/06 09:51:54;;;;;;;8.43;6.68;;;;;;;25.10;18.33;96888.00;5009456;28;20084;-36
2022/03/06 09:54:20;;;;;;;9.60;7.00;;;;;;;25.12;18.62;96894.00;5009199;28;20072;-30
2022/03/06 09:56:45;;;;;;;10.25;7.03;;;;;;;25.14;19.13;96895.63;5008276;28;20029;-35
2022/03/06 09:59:10;;;;;;;7.53;5.90;;;;;;;25.19;19.04;96898.03;4997677;28;20577;-33
2022/03/06 10:01:36;;;;;;;7.68;6.03;;;;;;;25.23;19.22;96883.84;4999200;28;20040;-29
2022/03/06 10:04:21;;;;;;;8.10;6.20;;;;;;;25.31;19.22;96891.31;4998317;28;20037;-29
2022/03/06 10:06:59;;;;;;;6.38;5.78;;;;;;;25.37;19.50;96891.03;4999344;28;20037;-32
2022/03/06 10:09:26;;;;;;;8.18;5.90;;;;;;;25.41;19.75;96891.72;4998834;28;20046;-35
2022/03/06 10:11:54;;;;;;;7.45;5.97;;;;;;;25.49;19.75;96888.69;5000903;28;20030;-33
2022/03/06 10:14:41;;;;;;;12.77;5.93;;;;;;;25.54;19.76;96881.44;4995605;28;20034;-32
2022/03/06 10:17:08;;;;;;;11.88;6.60;;;;;;;25.57;19.82;96886.56;5000038;28;20694;-31
2022/03/06 10:19:50;;;;;;;11.30;6.18;;;;;;;25.61;20.01;96892.50;4994691;28;20025;-33
2022/03/06 10:22:16;;;;;;;12.75;5.97;;;;;;;25.62;19.99;96889.81;4999680;28;20042;-29
2022/03/06 10:24:47;;;;;;;8.02;5.82;;;;;;;25.65;20.27;96894.06;4997681;28;20785;-32
2022/03/06 10:27:12;;;;;;;9.15;5.45;;;;;;;25.69;20.25;96900.84;5001098;28;20034;-33
2022/03/06 10:29:38;;;;;;;8.48;5.72;;;;;;;25.70;20.40;96884.16;5003487;28;20033;-31
2022/03/06 10:32:07;;;;;;;15.20;5.72;;;;;;;25.72;20.43;96895.44;4992475;28;21418;-27
2022/03/06 10:34:39;;;;;;;9.85;5.30;;;;;;;25.75;20.32;96897.06;4964759;28;20171;-32
2022/03/06 10:37:05;;;;;;;7.43;5.13;;;;;;;25.77;20.84;96893.44;4964434;28;20034;-31
2022/03/06 10:39:42;;;;;;;23.60;5.88;;;;;;;25.80;20.83;96887.16;4965651;28;20041;-34
2022/03/06 10:42:08;;;;;;;8.90;5.25;;;;;;;25.85;20.73;96892.19;4966991;28;20040;-31
2022/03/06 10:45:43;;;;;;;12.90;5.03;;;;;;;-148.56;100.00;61375.16;4963340;28;20786;-36
2022/03/06 10:48:09;;;;;;;7.10;4.85;;;;;;;25.90;21.00;96888.38;4959290;28;20049;-28
2022/03/06 10:50:34;;;;;;;10.27;4.80;;;;;;;25.93;21.10;96890.03;4961926;28;20510;-31
2022/03/06 10:53:58;;;;;;;7.90;4.78;;;;;;;-148.56;100.00;61375.16;4964083;28;20041;-33
2022/03/06 10:57:22;;;;;;;6.18;4.38;;;;;;;-148.56;100.00;61375.16;4962882;28;20156;-32
2022/03/06 11:00:47;;;;;;;18.23;4.88;;;;;;;-148.56;100.00;61375.16;4957915;28;22673;-33
2022/03/06 11:04:11;;;;;;;12.10;4.43;;;;;;;-148.56;100.00;61375.16;4960875;28;20030;-32
2022/03/06 11:07:38;;;;;;;7.05;4.40;;;;;;;-148.56;100.00;61375.16;4963742;28;22089;-31
2022/03/06 11:11:04;;;;;;;9.45;4.30;;;;;;;-148.56;100.00;61375.16;4963199;28;20140;-27
2022/03/06 11:14:28;;;;;;;11.60;4.10;;;;;;;-148.56;100.00;61375.16;4964823;28;20199;-27
2022/03/06 11:17:53;;;;;;;9.75;4.30;;;;;;;-148.56;100.00;61375.16;4964668;28;20039;-30
2022/03/06 11:21:17;;;;;;;19.30;4.57;;;;;;;-148.56;100.00;61375.16;4975148;28;20028;-30
2022/03/06 11:24:45;;;;;;;7.32;4.25;;;;;;;-148.56;100.00;61375.16;4963191;28;20112;-28
2022/03/06 11:28:31;;;;;;;8.65;4.43;;;;;;;-148.56;100.00;61375.16;4961652;28;21253;-25
2022/03/06 11:31:56;;;;;;;8.93;4.20;;;;;;;-148.56;100.00;61375.16;4971798;28;20063;-28
2022/03/06 11:35:23;;;;;;;7.82;4.07;;;;;;;-148.56;100.00;61375.16;5002739;28;20076;-29
2022/03/06 11:38:49;;;;;;;5.78;4.03;;;;;;;-148.56;100.00;61375.16;5000525;28;20017;-29
2022/03/06 11:42:32;;;;;;;9.52;3.78;;;;;;;-148.56;100.00;61375.16;4999012;28;20708;-32